Rocky Mount Wilson Regional Airport
KRWI : rendu visible

Aérodrome :











RETROUVEZ-NOUS SUR...

 
LOGIN :

S'inscrire | Disclaimer

   EN    FR    IT 

 









Légende :    VFR   VFR Marginal   IFR   IFR Intensif   IFR Très Intensif
Visi : 
Plafond : 
>= 8 km
>= 3000ft
5 à 8 km
1000 à 3000 ft
1500m à 5 km
500 à 1000 ft
800 à 1500m
200 à 500 ft
< 800m
< 200 ft
Symboles :   Orages  Brouillard  Fortes neiges  Fortes précipitations  Vent > 20 kt






- Altitude de l'aérodrome : 159 ft
- Code IATA : RWI


KRWI - Rocky Mount Wilson Regional

DERNIER METAR :
  • 141953Z AUTO 24010G18KT 10SM OVC019 13/10 A2950 RMK AO2 SLP991 T01280100

METARs EXPIRÉS :
  • 141853Z AUTO 20008KT 10SM BKN016 OVC022 12/10 A2949 RMK AO2 SLP985 T01220100
  • 141837Z AUTO 21009KT 10SM OVC015 13/10 A2948 RMK AO2 T01280100
  • 141753Z AUTO 24010KT 10SM OVC013 12/09 A2949 RMK AO2 SLP986 60011 T01220094 10122 20100 58010

TAF KRWI
Valide du 14 à 19h jusqu'au 15 à 18h UTC


141902Z 1419/1518 20007KT P6SM BKN015 OVC025
TEMPO 1419/1423 24012G20KT BKN070
FM142300 20008KT P6SM BKN100
FM150900 26005KT P6SM SKC



MET'MAP, la Météo Aéronautique d'un coup d'oeil ! - Copyright ORBIFLY Décembre 2007 - Disclaimer

ORBIFLY MET'MAP TEAM :

Programmation & Développement : Alexandra Zaïnal
Sur une idée originale de : Baudouin d'Aumeries
Assistance à la programmation : Marc-Olivier Méhu
Soutien technique & logistique : Manuel Goepfert

Contact : metmap@orbifly.com




SOURCES & CREDITS :

   NOAA       Earth
Advisory